createdAt,value
2019-05-19T00:01:57.405Z,14.43
2019-05-19T00:04:26.345Z,11.20
2019-05-19T00:06:55.208Z,15.10
2019-05-19T00:09:24.689Z,15.35
2019-05-19T00:11:53.564Z,16.32
2019-05-19T00:14:22.461Z,15.68
2019-05-19T00:16:51.446Z,15.48
2019-05-19T00:19:26.697Z,11.38
2019-05-19T00:21:53.974Z,16.60
2019-05-19T00:24:22.989Z,12.68
2019-05-19T00:26:51.914Z,15.25
2019-05-19T00:29:22.777Z,12.45
2019-05-19T00:31:53.185Z,13.95
2019-05-19T00:34:22.113Z,11.97
2019-05-19T00:36:51.007Z,14.35
2019-05-19T00:39:22.404Z,12.28
2019-05-19T00:41:51.376Z,13.95
2019-05-19T00:44:20.273Z,13.43
2019-05-19T00:46:49.157Z,13.70
2019-05-19T00:49:21.525Z,15.35
2019-05-19T00:51:50.396Z,14.18
2019-05-19T00:54:19.417Z,14.85
2019-05-19T00:56:49.840Z,14.47
2019-05-19T00:59:23.393Z,11.97
2019-05-19T01:01:52.282Z,14.20
2019-05-19T01:04:21.238Z,10.80
2019-05-19T01:06:50.148Z,11.45
2019-05-19T01:09:19.044Z,10.60
2019-05-19T01:11:48.583Z,12.28
2019-05-19T01:14:17.468Z,9.90
2019-05-19T01:16:46.463Z,11.75
2019-05-19T01:19:15.412Z,9.73
2019-05-19T01:21:45.523Z,9.53
2019-05-19T01:24:14.438Z,12.30
2019-05-19T01:26:43.390Z,8.08
2019-05-19T01:29:12.281Z,12.58
2019-05-19T01:31:41.254Z,14.30
2019-05-19T01:34:10.746Z,10.30
2019-05-19T01:36:39.664Z,12.65
2019-05-19T01:39:08.547Z,10.55
2019-05-19T01:41:37.533Z,10.45
2019-05-19T01:44:06.463Z,10.72
2019-05-19T01:46:35.339Z,8.75
2019-05-19T01:49:04.296Z,9.03
2019-05-19T01:51:33.200Z,11.43
2019-05-19T01:54:04.059Z,13.03
2019-05-19T01:56:33.166Z,12.00
2019-05-19T01:59:03.745Z,9.78
2019-05-19T02:01:32.636Z,8.63
2019-05-19T02:04:01.621Z,9.65
2019-05-19T02:06:30.527Z,7.60
2019-05-19T02:08:59.413Z,4.95
2019-05-19T02:11:28.598Z,8.00
2019-05-19T02:13:57.468Z,5.97
2019-05-19T02:16:26.348Z,3.90
2019-05-19T02:18:55.280Z,4.80
2019-05-19T02:21:24.158Z,4.58
2019-05-19T02:23:53.072Z,5.50
2019-05-19T02:26:22.027Z,6.20
2019-05-19T02:28:50.944Z,5.50
2019-05-19T02:31:19.852Z,3.52
2019-05-19T02:33:48.768Z,3.65
2019-05-19T02:36:17.678Z,3.67
2019-05-19T02:38:46.625Z,4.92
2019-05-19T02:41:18.187Z,5.35
2019-05-19T02:43:48.290Z,5.72
2019-05-19T02:46:17.385Z,4.47
2019-05-19T02:48:47.205Z,4.85
2019-05-19T02:51:19.298Z,4.40
2019-05-19T02:53:50.050Z,5.65
2019-05-19T02:56:19.601Z,5.92
2019-05-19T02:58:50.664Z,7.95
2019-05-19T03:01:19.694Z,6.83
2019-05-19T03:03:48.640Z,5.50
2019-05-19T03:06:17.519Z,6.60
2019-05-19T03:08:46.453Z,7.53
2019-05-19T03:11:15.658Z,8.40
2019-05-19T03:13:44.608Z,7.70
2019-05-19T03:16:13.497Z,6.80
2019-05-19T03:18:42.430Z,7.30
2019-05-19T03:21:12.194Z,7.53
2019-05-19T03:23:41.221Z,7.37
2019-05-19T03:26:10.153Z,8.83
2019-05-19T03:28:39.035Z,8.43
2019-05-19T03:31:18.934Z,7.10
2019-05-19T03:33:49.392Z,7.05
2019-05-19T03:36:18.711Z,7.30
2019-05-19T03:38:47.673Z,10.13
2019-05-19T03:41:16.650Z,6.33
2019-05-19T03:43:45.553Z,5.72
2019-05-19T03:46:14.489Z,7.92
2019-05-19T03:48:43.364Z,9.03
2019-05-19T03:51:29.163Z,7.12
2019-05-19T03:53:42.925Z,7.17
2019-05-19T03:56:11.836Z,10.45
2019-05-19T03:58:40.715Z,8.50
2019-05-19T04:01:10.635Z,8.78
2019-05-19T04:03:39.531Z,8.78
2019-05-19T04:06:08.510Z,7.50
2019-05-19T04:08:37.507Z,7.60
2019-05-19T04:11:06.464Z,4.87
2019-05-19T04:13:35.317Z,6.78
2019-05-19T04:16:04.279Z,7.70
2019-05-19T04:18:33.173Z,8.15
2019-05-19T04:21:02.100Z,6.42
2019-05-19T04:23:31.055Z,5.30
2019-05-19T04:26:00.050Z,6.40
2019-05-19T04:28:28.977Z,3.08
2019-05-19T04:30:58.159Z,3.33
2019-05-19T04:33:27.060Z,5.03
2019-05-19T04:35:57.523Z,5.90
2019-05-19T04:38:26.707Z,4.30
2019-05-19T04:40:55.572Z,6.40
2019-05-19T04:43:24.780Z,6.53
2019-05-19T04:45:53.862Z,4.37
2019-05-19T04:48:22.753Z,3.33
2019-05-19T04:50:52.787Z,5.62
2019-05-19T04:53:21.760Z,5.12
2019-05-19T04:55:50.666Z,4.03
2019-05-19T04:58:19.546Z,3.95
2019-05-19T05:00:48.706Z,3.33
2019-05-19T05:03:20.760Z,4.97
2019-05-19T05:05:49.652Z,4.55
2019-05-19T05:08:29.615Z,2.33
2019-05-19T05:10:49.378Z,4.87
2019-05-19T05:13:18.288Z,5.30
2019-05-19T05:15:47.229Z,4.87
2019-05-19T05:18:16.109Z,3.17
2019-05-19T05:20:44.975Z,3.62
2019-05-19T05:23:13.927Z,4.17
2019-05-19T05:25:42.816Z,4.15
2019-05-19T05:28:11.691Z,3.47
2019-05-19T05:30:40.735Z,2.67
2019-05-19T05:33:09.616Z,3.30
2019-05-19T05:35:38.690Z,5.97
2019-05-19T05:38:08.165Z,5.17
2019-05-19T05:40:37.333Z,6.22
2019-05-19T05:43:06.242Z,5.97
2019-05-19T05:45:35.299Z,5.80
2019-05-19T05:48:07.321Z,3.85
2019-05-19T05:50:36.922Z,3.85
2019-05-19T05:53:05.859Z,4.80
2019-05-19T05:55:34.723Z,3.22
2019-05-19T05:58:03.638Z,3.42
2019-05-19T06:00:32.666Z,3.75
2019-05-19T06:03:01.562Z,3.42
2019-05-19T06:05:30.464Z,4.53
2019-05-19T06:07:59.404Z,6.08
2019-05-19T06:10:28.294Z,8.43
2019-05-19T06:12:57.191Z,8.43
2019-05-19T06:15:26.213Z,8.50
2019-05-19T06:17:55.079Z,9.55
2019-05-19T06:20:24.973Z,7.80
2019-05-19T06:22:56.867Z,8.43
2019-05-19T06:25:24.527Z,7.42
2019-05-19T06:27:53.400Z,7.62
2019-05-19T06:30:22.446Z,7.30
2019-05-19T06:32:58.652Z,7.35
2019-05-19T06:35:27.646Z,6.33
2019-05-19T06:37:56.530Z,5.37
2019-05-19T06:40:25.438Z,5.58
2019-05-19T06:42:54.363Z,3.30
2019-05-19T06:45:23.810Z,6.62
2019-05-19T06:47:52.811Z,6.58
2019-05-19T06:50:21.843Z,6.28
2019-05-19T06:52:50.755Z,7.05
2019-05-19T06:55:20.981Z,5.90
2019-05-19T06:57:50.043Z,6.83
2019-05-19T07:00:19.414Z,3.83
2019-05-19T07:02:48.289Z,4.42
2019-05-19T07:05:17.305Z,4.35
2019-05-19T07:07:46.172Z,4.03
2019-05-19T07:10:15.272Z,3.77
2019-05-19T07:12:44.258Z,5.00
2019-05-19T07:15:13.219Z,3.98
2019-05-19T07:17:42.076Z,4.28
2019-05-19T07:20:11.161Z,4.05
2019-05-19T07:22:40.070Z,4.72
2019-05-19T07:25:09.065Z,6.10
2019-05-19T07:27:37.994Z,4.70
2019-05-19T07:30:07.601Z,4.42
2019-05-19T07:32:36.509Z,3.20
2019-05-19T07:35:06.940Z,4.10
2019-05-19T07:37:35.843Z,6.75
2019-05-19T07:40:06.193Z,4.55
2019-05-19T07:42:35.137Z,4.90
2019-05-19T07:45:04.834Z,3.45
2019-05-19T07:47:33.742Z,3.42
2019-05-19T07:50:02.846Z,5.75
2019-05-19T07:52:34.737Z,4.47
2019-05-19T07:55:05.632Z,6.50
2019-05-19T07:57:34.662Z,6.40
2019-05-19T08:00:05.089Z,4.47
2019-05-19T08:02:34.277Z,5.17
2019-05-19T08:05:03.267Z,6.75
2019-05-19T08:07:32.143Z,4.33
2019-05-19T08:10:04.093Z,4.30
2019-05-19T08:12:33.030Z,5.33
2019-05-19T08:15:02.102Z,5.72
2019-05-19T08:17:31.046Z,5.95
2019-05-19T08:19:59.971Z,4.08
2019-05-19T08:22:28.872Z,4.12
2019-05-19T08:24:57.812Z,3.77
2019-05-19T08:27:26.694Z,4.37
2019-05-19T08:29:55.714Z,6.20
2019-05-19T08:32:24.704Z,5.55
2019-05-19T08:34:53.778Z,7.53
2019-05-19T08:37:22.999Z,6.75
2019-05-19T08:39:52.450Z,7.25
2019-05-19T08:42:21.358Z,6.58
2019-05-19T08:44:50.327Z,7.80
2019-05-19T08:47:19.262Z,7.12
2019-05-19T08:49:48.296Z,6.53
2019-05-19T08:52:17.215Z,8.03
2019-05-19T08:54:48.915Z,7.62
2019-05-19T08:57:17.814Z,7.60
2019-05-19T08:59:46.729Z,4.28
2019-05-19T09:02:15.704Z,4.08
2019-05-19T09:04:44.571Z,5.42
2019-05-19T09:07:13.463Z,4.25
2019-05-19T09:09:42.428Z,5.28
2019-05-19T09:12:11.354Z,4.58
2019-05-19T09:14:40.244Z,4.40
2019-05-19T09:17:09.462Z,5.87
2019-05-19T09:19:38.592Z,4.80
2019-05-19T09:22:07.482Z,4.65
2019-05-19T09:24:37.365Z,4.87
2019-05-19T09:27:06.396Z,4.80
2019-05-19T09:29:36.498Z,4.70
2019-05-19T09:32:05.493Z,5.30
2019-05-19T09:34:34.382Z,5.33
2019-05-19T09:37:03.293Z,4.97
2019-05-19T09:39:32.499Z,5.97
2019-05-19T09:42:01.480Z,5.08
2019-05-19T09:44:30.431Z,5.33
2019-05-19T09:46:59.367Z,5.12
2019-05-19T09:49:30.339Z,4.10
2019-05-19T09:51:59.218Z,5.20
2019-05-19T09:54:29.351Z,4.22
2019-05-19T09:56:58.280Z,4.20
2019-05-19T09:59:28.406Z,6.45
2019-05-19T10:01:57.491Z,6.00
2019-05-19T10:04:26.366Z,6.80
2019-05-19T10:06:55.344Z,6.28
2019-05-19T10:10:00.959Z,6.87
2019-05-19T10:12:30.557Z,6.87
2019-05-19T10:14:59.561Z,7.25
2019-05-19T10:17:32.836Z,5.95
2019-05-19T10:20:01.858Z,5.65
2019-05-19T10:22:31.028Z,7.20
2019-05-19T10:25:20.426Z,5.40
2019-05-19T10:27:30.859Z,6.20
2019-05-19T10:30:00.021Z,6.87
2019-05-19T10:32:29.406Z,6.95
2019-05-19T10:34:58.291Z,7.00
2019-05-19T10:37:27.168Z,6.05
2019-05-19T10:39:56.104Z,7.87
2019-05-19T10:42:27.997Z,9.65
2019-05-19T10:44:58.420Z,7.12
2019-05-19T10:47:27.340Z,6.75
2019-05-19T10:49:56.308Z,6.53
2019-05-19T10:52:25.206Z,6.45
2019-05-19T10:54:54.089Z,7.78
2019-05-19T10:57:23.047Z,5.42
2019-05-19T10:59:51.972Z,6.37
2019-05-19T11:02:20.866Z,6.05
2019-05-19T11:04:49.888Z,7.78
2019-05-19T11:07:18.815Z,6.55
2019-05-19T11:09:47.721Z,9.33
2019-05-19T11:12:16.648Z,6.67
2019-05-19T11:14:45.547Z,6.60
2019-05-19T11:17:14.470Z,6.22
2019-05-19T11:19:43.448Z,6.80
2019-05-19T11:22:12.320Z,9.40
2019-05-19T11:24:41.216Z,9.58
2019-05-19T11:27:10.654Z,9.50
2019-05-19T11:29:39.610Z,10.72
2019-05-19T11:32:08.500Z,10.95
2019-05-19T11:34:37.460Z,9.18
2019-05-19T11:37:07.414Z,8.48
2019-05-19T11:39:36.489Z,8.70
2019-05-19T11:42:05.479Z,10.32
2019-05-19T11:44:34.486Z,11.20
2019-05-19T11:47:03.379Z,8.68
2019-05-19T11:49:32.847Z,10.43
2019-05-19T11:52:01.818Z,9.43
2019-05-19T11:54:30.723Z,9.50
2019-05-19T11:56:59.671Z,8.13
2019-05-19T11:59:28.546Z,8.83
2019-05-19T12:01:57.551Z,7.53
2019-05-19T12:04:26.486Z,7.58
2019-05-19T12:06:55.392Z,12.10
2019-05-19T12:09:24.327Z,8.58
2019-05-19T12:11:53.276Z,11.00
2019-05-19T12:14:22.181Z,9.58
2019-05-19T12:16:51.200Z,8.15
2019-05-19T12:19:20.616Z,9.83
2019-05-19T12:21:49.496Z,9.00
2019-05-19T12:24:18.383Z,8.48
2019-05-19T12:26:47.342Z,8.65
2019-05-19T12:29:16.261Z,9.08
2019-05-19T12:31:45.150Z,9.15
2019-05-19T12:34:14.094Z,9.85
2019-05-19T12:36:42.989Z,8.30
2019-05-19T12:39:14.689Z,7.62
2019-05-19T12:41:43.632Z,9.73
2019-05-19T12:44:12.594Z,10.48
2019-05-19T12:46:41.470Z,7.92
2019-05-19T12:49:10.429Z,9.30
2019-05-19T12:51:42.303Z,10.05
2019-05-19T12:54:11.364Z,7.87
2019-05-19T12:56:42.814Z,8.45
2019-05-19T12:59:11.816Z,7.33
2019-05-19T13:01:42.198Z,8.33
2019-05-19T13:04:11.141Z,7.03
2019-05-19T13:06:40.047Z,5.87
2019-05-19T13:09:10.041Z,6.35
2019-05-19T13:11:38.988Z,6.20
2019-05-19T13:14:07.895Z,5.17
2019-05-19T13:16:36.805Z,4.58
2019-05-19T13:19:05.756Z,4.67
2019-05-19T13:21:34.810Z,4.55
2019-05-19T13:24:03.693Z,4.75
2019-05-19T13:26:33.411Z,4.53
2019-05-19T13:29:02.302Z,4.33
2019-05-19T13:31:31.190Z,5.00
2019-05-19T13:34:00.135Z,5.03
2019-05-19T13:36:29.156Z,4.95
2019-05-19T13:38:58.044Z,5.10
2019-05-19T13:41:27.362Z,4.60
2019-05-19T13:43:59.451Z,4.30
2019-05-19T13:46:26.777Z,4.20
2019-05-19T13:48:56.084Z,3.50
2019-05-19T13:51:24.971Z,5.00
2019-05-19T13:53:53.881Z,5.25
2019-05-19T13:56:22.838Z,4.75
2019-05-19T13:58:51.925Z,5.30
2019-05-19T14:01:28.668Z,4.72
2019-05-19T14:03:58.603Z,4.25
2019-05-19T14:06:27.877Z,4.58
2019-05-19T14:08:56.763Z,4.83
2019-05-19T14:11:27.067Z,4.60
2019-05-19T14:13:57.957Z,4.65
2019-05-19T14:16:26.851Z,4.87
2019-05-19T14:18:57.701Z,5.05
2019-05-19T14:21:26.603Z,5.00
2019-05-19T14:23:58.443Z,5.20
2019-05-19T14:26:27.395Z,5.00
2019-05-19T14:28:56.272Z,6.35
2019-05-19T14:31:25.321Z,6.08
2019-05-19T14:33:54.265Z,5.22
2019-05-19T14:36:23.196Z,6.40
2019-05-19T14:39:05.464Z,7.03
2019-05-19T14:41:34.014Z,8.18
2019-05-19T14:44:04.530Z,7.55
2019-05-19T14:46:33.536Z,8.45
2019-05-19T14:49:02.414Z,8.20
2019-05-19T14:51:34.217Z,7.90
2019-05-19T14:54:03.222Z,7.42
2019-05-19T14:56:33.702Z,8.83
2019-05-19T14:59:05.438Z,7.40
2019-05-19T15:01:34.492Z,7.60
2019-05-19T15:04:03.393Z,7.12
2019-05-19T15:06:32.322Z,7.42
2019-05-19T15:09:02.908Z,7.45
2019-05-19T15:11:31.778Z,6.60
2019-05-19T15:14:03.412Z,6.50
2019-05-19T15:16:32.354Z,6.15
2019-05-19T15:19:01.287Z,5.47
2019-05-19T15:21:31.999Z,6.15
2019-05-19T15:24:02.093Z,5.12
2019-05-19T15:26:31.008Z,5.22
2019-05-19T15:28:59.916Z,5.00
2019-05-19T15:31:28.906Z,5.30
2019-05-19T15:33:57.798Z,4.95
2019-05-19T15:36:26.792Z,4.97
2019-05-19T15:38:57.348Z,5.15
2019-05-19T15:41:26.314Z,4.78
2019-05-19T15:43:55.194Z,4.50
2019-05-19T15:46:24.166Z,4.40
2019-05-19T15:48:53.052Z,4.50
2019-05-19T15:51:28.573Z,4.47
2019-05-19T15:53:52.514Z,4.17
2019-05-19T15:56:21.394Z,4.50
2019-05-19T15:58:53.171Z,4.25
2019-05-19T16:01:23.333Z,4.40
2019-05-19T16:03:52.308Z,5.42
2019-05-19T16:06:22.699Z,4.45
2019-05-19T16:08:53.083Z,4.78
2019-05-19T16:11:21.971Z,5.15
2019-05-19T16:13:50.899Z,5.03
2019-05-19T16:16:22.992Z,6.60
2019-05-19T16:18:54.847Z,5.28
2019-05-19T16:21:23.740Z,5.37
2019-05-19T16:23:52.620Z,5.55
2019-05-19T16:26:22.332Z,5.30
2019-05-19T16:28:54.310Z,5.47
2019-05-19T16:31:23.383Z,5.58
2019-05-19T16:33:52.485Z,5.15
2019-05-19T16:36:25.018Z,4.90
2019-05-19T16:38:53.915Z,4.40
2019-05-19T16:41:22.906Z,5.05
2019-05-19T16:43:51.792Z,4.92
2019-05-19T16:46:20.715Z,4.62
2019-05-19T16:48:50.496Z,4.58
2019-05-19T16:51:19.989Z,4.90
2019-05-19T16:53:54.890Z,4.78
2019-05-19T16:56:23.878Z,5.90
2019-05-19T16:58:55.893Z,5.22
2019-05-19T17:01:27.765Z,4.78
2019-05-19T17:03:56.992Z,5.20
2019-05-19T17:06:25.860Z,5.58
2019-05-19T17:08:55.023Z,5.22
2019-05-19T17:11:24.286Z,5.78
2019-05-19T17:13:54.348Z,5.80
2019-05-19T17:16:23.305Z,6.62
2019-05-19T17:18:53.681Z,6.58
2019-05-19T17:21:24.267Z,6.45
2019-05-19T17:23:53.208Z,6.20
2019-05-19T17:26:22.148Z,6.70
2019-05-19T17:29:00.730Z,6.45
2019-05-19T17:31:29.465Z,7.10
2019-05-19T17:33:58.357Z,7.87
2019-05-19T17:36:27.560Z,7.15
2019-05-19T17:38:56.838Z,7.17
2019-05-19T17:41:29.133Z,7.55
2019-05-19T17:43:58.035Z,8.80
2019-05-19T17:46:27.107Z,8.33
2019-05-19T17:48:55.989Z,7.42
2019-05-19T17:51:25.097Z,8.13
2019-05-19T17:53:54.167Z,7.62
2019-05-19T17:56:24.092Z,8.78
2019-05-19T17:58:53.179Z,8.05
2019-05-19T18:01:22.292Z,8.30
2019-05-19T18:03:52.143Z,8.95
2019-05-19T18:06:21.038Z,8.70
2019-05-19T18:08:50.004Z,8.70
2019-05-19T18:11:18.932Z,9.08
2019-05-19T18:13:47.829Z,9.05
2019-05-19T18:16:17.231Z,8.48
2019-05-19T18:18:46.216Z,8.50
2019-05-19T18:21:15.269Z,8.73
2019-05-19T18:23:44.208Z,8.68
2019-05-19T18:26:13.189Z,9.70
2019-05-19T18:28:42.159Z,9.95
2019-05-19T18:31:11.476Z,8.68
2019-05-19T18:33:40.454Z,9.78
2019-05-19T18:36:12.830Z,10.80
2019-05-19T18:38:41.807Z,11.22
2019-05-19T18:41:12.232Z,11.05
2019-05-19T18:43:43.843Z,11.93
2019-05-19T18:46:12.925Z,10.72
2019-05-19T18:48:43.896Z,12.10
2019-05-19T18:51:20.523Z,11.78
2019-05-19T18:53:51.737Z,11.78
2019-05-19T18:56:24.402Z,12.28
2019-05-19T18:58:53.360Z,11.15
2019-05-19T19:01:23.938Z,11.73
2019-05-19T19:03:53.116Z,11.97
2019-05-19T19:06:23.677Z,10.98
2019-05-19T19:08:56.153Z,10.88
2019-05-19T19:11:27.051Z,10.08
2019-05-19T19:13:58.072Z,9.85
2019-05-19T19:16:27.076Z,11.12
2019-05-19T19:18:56.052Z,11.15
2019-05-19T19:21:25.107Z,12.07
2019-05-19T19:23:54.003Z,10.32
2019-05-19T19:26:22.943Z,10.65
2019-05-19T19:28:51.835Z,10.18
2019-05-19T19:31:20.829Z,10.82
2019-05-19T19:33:49.784Z,11.03
2019-05-19T19:36:18.673Z,10.72
2019-05-19T19:38:58.834Z,11.57
2019-05-19T19:41:27.810Z,10.78
2019-05-19T19:43:59.242Z,9.80
2019-05-19T19:46:31.244Z,8.15
2019-05-19T19:49:03.098Z,9.33
2019-05-19T19:51:37.461Z,11.70
2019-05-19T19:54:06.498Z,10.53
2019-05-19T19:56:35.431Z,8.05
2019-05-19T19:59:04.439Z,7.53
2019-05-19T20:01:33.490Z,11.22
2019-05-19T20:04:02.563Z,10.98
2019-05-19T20:06:34.517Z,8.20
2019-05-19T20:09:03.989Z,9.85
2019-05-19T20:11:33.426Z,8.25
2019-05-19T20:14:05.923Z,9.08
2019-05-19T20:16:34.867Z,10.35
2019-05-19T20:19:05.428Z,11.65
2019-05-19T20:21:37.439Z,12.20
2019-05-19T20:24:06.403Z,8.55
2019-05-19T20:26:41.274Z,7.97
2019-05-19T20:29:08.690Z,10.82
2019-05-19T20:31:43.890Z,9.53
2019-05-19T20:34:12.988Z,9.15
2019-05-19T20:36:44.014Z,12.15
2019-05-19T20:39:17.101Z,10.18
2019-05-19T20:41:46.191Z,9.18
2019-05-19T20:44:25.901Z,8.50
2019-05-19T20:46:56.207Z,9.50
2019-05-19T20:49:34.740Z,8.05
2019-05-19T20:52:02.689Z,9.83
2019-05-19T20:54:30.958Z,7.70
2019-05-19T20:57:10.017Z,5.97
2019-05-19T20:59:40.049Z,7.80
2019-05-19T21:02:09.272Z,7.60
2019-05-19T21:04:40.893Z,8.55
2019-05-19T21:07:09.943Z,7.83
2019-05-19T21:09:41.074Z,7.05
2019-05-19T21:12:10.051Z,9.38
2019-05-19T21:14:40.663Z,6.97
2019-05-19T21:17:24.912Z,6.08
2019-05-19T21:19:54.148Z,7.45
2019-05-19T21:22:22.576Z,7.35
2019-05-19T21:24:54.675Z,8.05
2019-05-19T21:27:23.572Z,5.47
2019-05-19T21:29:52.712Z,5.65
2019-05-19T21:32:21.707Z,5.65
2019-05-19T21:34:52.579Z,5.97
2019-05-19T21:37:21.178Z,7.95
2019-05-19T21:39:50.159Z,7.12
2019-05-19T21:42:19.263Z,7.37
2019-05-19T21:44:51.080Z,7.95
2019-05-19T21:47:25.878Z,6.05
2019-05-19T21:52:30.642Z,5.58
2019-05-19T21:55:02.646Z,6.40
2019-05-19T21:57:31.540Z,7.47
2019-05-19T22:00:01.752Z,8.43
2019-05-19T22:02:33.159Z,7.28
2019-05-19T22:05:06.198Z,7.12
2019-05-19T22:07:54.576Z,7.08
2019-05-19T22:10:24.220Z,6.90
2019-05-19T22:12:53.221Z,9.58
2019-05-19T22:15:23.699Z,7.67
2019-05-19T22:17:52.726Z,6.90
2019-05-19T22:20:23.247Z,7.33
2019-05-19T22:22:52.147Z,9.43
2019-05-19T22:25:21.102Z,7.05
2019-05-19T22:27:49.979Z,7.45
2019-05-19T22:30:19.374Z,8.48
2019-05-19T22:32:48.318Z,9.05
2019-05-19T22:35:19.997Z,10.82
2019-05-19T22:37:48.916Z,7.33
2019-05-19T22:40:17.966Z,9.33
2019-05-19T22:42:46.851Z,10.72
2019-05-19T22:45:16.670Z,9.65
2019-05-19T22:47:45.585Z,10.82
2019-05-19T22:50:14.707Z,11.43
2019-05-19T22:52:43.626Z,10.23
2019-05-19T22:55:13.158Z,11.40
2019-05-19T22:57:42.062Z,12.00
2019-05-19T23:00:13.161Z,12.25
2019-05-19T23:02:42.133Z,11.70
2019-05-19T23:05:11.778Z,11.70
2019-05-19T23:07:40.994Z,10.58
2019-05-19T23:10:11.567Z,8.15
2019-05-19T23:12:40.447Z,8.85
2019-05-19T23:15:10.294Z,8.13
2019-05-19T23:17:39.188Z,10.48
2019-05-19T23:20:08.623Z,7.40
2019-05-19T23:22:37.637Z,9.03
2019-05-19T23:25:07.372Z,8.28
2019-05-19T23:27:37.402Z,13.68
2019-05-19T23:30:08.208Z,13.50
2019-05-19T23:32:38.665Z,13.83
2019-05-19T23:35:09.059Z,15.63
2019-05-19T23:37:37.991Z,9.90
2019-05-19T23:40:09.327Z,9.30
2019-05-19T23:42:39.672Z,9.20
2019-05-19T23:45:09.223Z,10.48
2019-05-19T23:47:38.110Z,8.38
2019-05-19T23:50:07.688Z,7.47
2019-05-19T23:52:36.681Z,10.45
2019-05-19T23:55:07.303Z,8.60
2019-05-19T23:57:36.694Z,7.40
